sensor_id;sensor_type;location;lat;lon;timestamp;P1;durP1;ratioP1;P2;durP2;ratioP2
22786;SDS011;63134;52.020;4.714;2024-03-29T00:00:51;5.45;;;1.90;;
22786;SDS011;63134;52.020;4.714;2024-03-29T00:03:36;8.38;;;2.00;;
22786;SDS011;63134;52.020;4.714;2024-03-29T00:06:21;8.18;;;1.90;;
22786;SDS011;63134;52.020;4.714;2024-03-29T00:09:05;8.82;;;1.85;;
22786;SDS011;63134;52.020;4.714;2024-03-29T00:11:50;7.88;;;2.03;;
22786;SDS011;63134;52.020;4.714;2024-03-29T00:14:34;8.32;;;2.45;;
22786;SDS011;63134;52.020;4.714;2024-03-29T00:17:19;7.78;;;1.98;;
22786;SDS011;63134;52.020;4.714;2024-03-29T00:20:04;5.32;;;1.85;;
22786;SDS011;63134;52.020;4.714;2024-03-29T00:22:51;6.53;;;1.60;;
22786;SDS011;63134;52.020;4.714;2024-03-29T00:25:35;7.15;;;1.85;;
22786;SDS011;63134;52.020;4.714;2024-03-29T00:28:20;6.10;;;2.00;;
22786;SDS011;63134;52.020;4.714;2024-03-29T00:31:04;7.22;;;2.45;;
22786;SDS011;63134;52.020;4.714;2024-03-29T00:33:49;8.55;;;2.08;;
22786;SDS011;63134;52.020;4.714;2024-03-29T00:36:34;6.18;;;1.80;;
22786;SDS011;63134;52.020;4.714;2024-03-29T00:39:18;4.53;;;1.70;;
22786;SDS011;63134;52.020;4.714;2024-03-29T00:42:03;6.10;;;2.20;;
22786;SDS011;63134;52.020;4.714;2024-03-29T00:44:50;5.93;;;1.90;;
22786;SDS011;63134;52.020;4.714;2024-03-29T00:47:36;6.22;;;1.95;;
22786;SDS011;63134;52.020;4.714;2024-03-29T00:50:21;4.05;;;1.83;;
22786;SDS011;63134;52.020;4.714;2024-03-29T00:53:05;6.63;;;2.13;;
22786;SDS011;63134;52.020;4.714;2024-03-29T00:55:50;5.05;;;1.40;;
22786;SDS011;63134;52.020;4.714;2024-03-29T00:58:35;6.15;;;1.83;;
22786;SDS011;63134;52.020;4.714;2024-03-29T01:01:19;5.85;;;1.80;;
22786;SDS011;63134;52.020;4.714;2024-03-29T01:04:04;6.35;;;2.20;;
22786;SDS011;63134;52.020;4.714;2024-03-29T01:06:49;8.57;;;2.20;;
22786;SDS011;63134;52.020;4.714;2024-03-29T01:09:34;2.85;;;1.50;;
22786;SDS011;63134;52.020;4.714;2024-03-29T01:12:19;5.97;;;1.77;;
22786;SDS011;63134;52.020;4.714;2024-03-29T01:15:03;6.68;;;1.98;;
22786;SDS011;63134;52.020;4.714;2024-03-29T01:20:33;5.57;;;1.60;;
22786;SDS011;63134;52.020;4.714;2024-03-29T01:23:18;8.18;;;1.85;;
22786;SDS011;63134;52.020;4.714;2024-03-29T01:26:04;6.35;;;2.03;;
22786;SDS011;63134;52.020;4.714;2024-03-29T01:28:50;10.07;;;2.08;;
22786;SDS011;63134;52.020;4.714;2024-03-29T01:31:34;7.88;;;2.20;;
22786;SDS011;63134;52.020;4.714;2024-03-29T01:34:19;5.88;;;2.13;;
22786;SDS011;63134;52.020;4.714;2024-03-29T01:37:03;7.78;;;1.80;;
22786;SDS011;63134;52.020;4.714;2024-03-29T01:39:48;8.85;;;2.28;;
22786;SDS011;63134;52.020;4.714;2024-03-29T01:42:34;7.47;;;2.10;;
22786;SDS011;63134;52.020;4.714;2024-03-29T01:45:22;7.05;;;2.50;;
22786;SDS011;63134;52.020;4.714;2024-03-29T01:48:07;7.28;;;1.92;;
22786;SDS011;63134;52.020;4.714;2024-03-29T01:50:54;4.93;;;1.73;;
22786;SDS011;63134;52.020;4.714;2024-03-29T01:53:41;7.75;;;1.95;;
22786;SDS011;63134;52.020;4.714;2024-03-29T01:56:27;7.30;;;1.83;;
22786;SDS011;63134;52.020;4.714;2024-03-29T01:59:15;10.13;;;2.40;;
22786;SDS011;63134;52.020;4.714;2024-03-29T02:02:00;6.07;;;2.08;;
22786;SDS011;63134;52.020;4.714;2024-03-29T02:04:46;4.97;;;1.73;;
22786;SDS011;63134;52.020;4.714;2024-03-29T02:07:31;4.15;;;1.92;;
22786;SDS011;63134;52.020;4.714;2024-03-29T02:13:01;9.03;;;2.00;;
22786;SDS011;63134;52.020;4.714;2024-03-29T02:15:46;6.93;;;1.52;;
22786;SDS011;63134;52.020;4.714;2024-03-29T02:18:30;4.47;;;1.85;;
22786;SDS011;63134;52.020;4.714;2024-03-29T02:21:15;7.88;;;1.52;;
22786;SDS011;63134;52.020;4.714;2024-03-29T02:24:00;5.18;;;1.55;;
22786;SDS011;63134;52.020;4.714;2024-03-29T02:26:51;6.72;;;1.65;;
22786;SDS011;63134;52.020;4.714;2024-03-29T02:29:37;5.28;;;2.15;;
22786;SDS011;63134;52.020;4.714;2024-03-29T02:32:21;5.40;;;2.28;;
22786;SDS011;63134;52.020;4.714;2024-03-29T02:35:06;9.10;;;1.85;;
22786;SDS011;63134;52.020;4.714;2024-03-29T02:37:51;7.80;;;1.85;;
22786;SDS011;63134;52.020;4.714;2024-03-29T02:40:36;5.35;;;1.65;;
22786;SDS011;63134;52.020;4.714;2024-03-29T02:43:21;4.72;;;1.85;;
22786;SDS011;63134;52.020;4.714;2024-03-29T02:46:05;6.43;;;2.20;;
22786;SDS011;63134;52.020;4.714;2024-03-29T02:48:50;7.13;;;1.70;;
22786;SDS011;63134;52.020;4.714;2024-03-29T02:51:35;5.38;;;1.73;;
22786;SDS011;63134;52.020;4.714;2024-03-29T02:54:20;5.18;;;1.73;;
22786;SDS011;63134;52.020;4.714;2024-03-29T02:57:04;6.95;;;2.20;;
22786;SDS011;63134;52.020;4.714;2024-03-29T02:59:49;5.55;;;2.15;;
22786;SDS011;63134;52.020;4.714;2024-03-29T03:02:37;8.48;;;2.28;;
22786;SDS011;63134;52.020;4.714;2024-03-29T03:05:22;5.32;;;1.63;;
22786;SDS011;63134;52.020;4.714;2024-03-29T03:08:06;9.50;;;2.40;;
22786;SDS011;63134;52.020;4.714;2024-03-29T03:11:10;5.38;;;1.67;;
22786;SDS011;63134;52.020;4.714;2024-03-29T03:13:54;7.20;;;1.60;;
22786;SDS011;63134;52.020;4.714;2024-03-29T03:16:39;4.40;;;2.00;;
22786;SDS011;63134;52.020;4.714;2024-03-29T03:19:24;3.95;;;1.90;;
22786;SDS011;63134;52.020;4.714;2024-03-29T03:22:08;4.63;;;2.25;;
22786;SDS011;63134;52.020;4.714;2024-03-29T03:24:53;6.78;;;2.45;;
22786;SDS011;63134;52.020;4.714;2024-03-29T03:27:37;6.18;;;2.30;;
22786;SDS011;63134;52.020;4.714;2024-03-29T03:30:28;3.97;;;1.80;;
22786;SDS011;63134;52.020;4.714;2024-03-29T03:33:12;5.65;;;2.30;;
22786;SDS011;63134;52.020;4.714;2024-03-29T03:35:57;4.47;;;2.17;;
22786;SDS011;63134;52.020;4.714;2024-03-29T03:38:41;6.30;;;2.00;;
22786;SDS011;63134;52.020;4.714;2024-03-29T03:41:26;5.65;;;1.85;;
22786;SDS011;63134;52.020;4.714;2024-03-29T03:44:11;5.50;;;2.13;;
22786;SDS011;63134;52.020;4.714;2024-03-29T03:46:55;3.80;;;1.80;;
22786;SDS011;63134;52.020;4.714;2024-03-29T03:49:40;4.07;;;1.80;;
22786;SDS011;63134;52.020;4.714;2024-03-29T03:52:24;4.10;;;1.70;;
22786;SDS011;63134;52.020;4.714;2024-03-29T03:55:09;3.65;;;1.80;;
22786;SDS011;63134;52.020;4.714;2024-03-29T03:57:54;3.65;;;1.70;;
22786;SDS011;63134;52.020;4.714;2024-03-29T04:00:38;4.88;;;1.67;;
22786;SDS011;63134;52.020;4.714;2024-03-29T04:03:23;3.53;;;1.85;;
22786;SDS011;63134;52.020;4.714;2024-03-29T04:06:08;3.92;;;1.30;;
22786;SDS011;63134;52.020;4.714;2024-03-29T04:08:53;2.90;;;1.63;;
22786;SDS011;63134;52.020;4.714;2024-03-29T04:11:38;3.22;;;1.23;;
22786;SDS011;63134;52.020;4.714;2024-03-29T04:14:23;4.88;;;1.40;;
22786;SDS011;63134;52.020;4.714;2024-03-29T04:17:07;2.55;;;1.40;;
22786;SDS011;63134;52.020;4.714;2024-03-29T04:19:52;3.53;;;1.30;;
22786;SDS011;63134;52.020;4.714;2024-03-29T04:22:37;1.98;;;1.20;;
22786;SDS011;63134;52.020;4.714;2024-03-29T04:25:21;3.30;;;1.48;;
22786;SDS011;63134;52.020;4.714;2024-03-29T04:28:06;3.40;;;1.48;;
22786;SDS011;63134;52.020;4.714;2024-03-29T04:30:54;4.45;;;1.40;;
22786;SDS011;63134;52.020;4.714;2024-03-29T04:33:40;2.25;;;1.20;;
22786;SDS011;63134;52.020;4.714;2024-03-29T04:36:24;2.65;;;1.52;;
22786;SDS011;63134;52.020;4.714;2024-03-29T04:39:09;2.08;;;1.50;;
22786;SDS011;63134;52.020;4.714;2024-03-29T04:41:53;3.58;;;1.27;;
22786;SDS011;63134;52.020;4.714;2024-03-29T04:44:39;1.65;;;0.98;;
22786;SDS011;63134;52.020;4.714;2024-03-29T04:47:23;2.85;;;1.10;;
22786;SDS011;63134;52.020;4.714;2024-03-29T04:50:08;2.45;;;0.98;;
22786;SDS011;63134;52.020;4.714;2024-03-29T04:52:53;2.10;;;1.17;;
22786;SDS011;63134;52.020;4.714;2024-03-29T04:55:38;2.25;;;1.00;;
22786;SDS011;63134;52.020;4.714;2024-03-29T04:58:24;2.20;;;0.90;;
22786;SDS011;63134;52.020;4.714;2024-03-29T05:01:12;2.13;;;1.00;;
22786;SDS011;63134;52.020;4.714;2024-03-29T05:03:57;3.35;;;1.10;;
22786;SDS011;63134;52.020;4.714;2024-03-29T05:06:42;2.85;;;1.08;;
22786;SDS011;63134;52.020;4.714;2024-03-29T05:09:26;1.85;;;1.00;;
22786;SDS011;63134;52.020;4.714;2024-03-29T05:12:13;1.52;;;0.90;;
22786;SDS011;63134;52.020;4.714;2024-03-29T05:14:57;3.00;;;0.90;;
22786;SDS011;63134;52.020;4.714;2024-03-29T05:17:42;0.65;;;0.65;;
22786;SDS011;63134;52.020;4.714;2024-03-29T05:20:26;1.95;;;1.00;;
22786;SDS011;63134;52.020;4.714;2024-03-29T05:23:11;1.92;;;1.10;;
22786;SDS011;63134;52.020;4.714;2024-03-29T05:25:57;1.52;;;0.70;;
22786;SDS011;63134;52.020;4.714;2024-03-29T05:28:42;0.88;;;0.88;;
22786;SDS011;63134;52.020;4.714;2024-03-29T05:31:27;3.05;;;1.00;;
22786;SDS011;63134;52.020;4.714;2024-03-29T05:34:11;1.95;;;0.90;;
22786;SDS011;63134;52.020;4.714;2024-03-29T05:36:56;1.45;;;1.00;;
22786;SDS011;63134;52.020;4.714;2024-03-29T05:39:40;1.80;;;1.00;;
22786;SDS011;63134;52.020;4.714;2024-03-29T05:42:25;2.17;;;1.10;;
22786;SDS011;63134;52.020;4.714;2024-03-29T05:45:27;2.80;;;1.13;;
22786;SDS011;63134;52.020;4.714;2024-03-29T05:48:12;1.42;;;0.80;;
22786;SDS011;63134;52.020;4.714;2024-03-29T05:50:57;2.35;;;1.00;;
22786;SDS011;63134;52.020;4.714;2024-03-29T05:53:42;2.65;;;1.23;;
22786;SDS011;63134;52.020;4.714;2024-03-29T05:56:27;1.00;;;0.90;;
22786;SDS011;63134;52.020;4.714;2024-03-29T05:59:11;1.52;;;1.02;;
22786;SDS011;63134;52.020;4.714;2024-03-29T06:01:56;3.90;;;1.15;;
22786;SDS011;63134;52.020;4.714;2024-03-29T06:04:41;1.85;;;1.15;;
22786;SDS011;63134;52.020;4.714;2024-03-29T06:07:25;1.85;;;1.00;;
22786;SDS011;63134;52.020;4.714;2024-03-29T06:10:13;1.58;;;1.00;;
22786;SDS011;63134;52.020;4.714;2024-03-29T06:12:58;1.35;;;1.00;;
22786;SDS011;63134;52.020;4.714;2024-03-29T06:15:51;1.35;;;1.00;;
22786;SDS011;63134;52.020;4.714;2024-03-29T06:18:54;2.78;;;1.10;;
22786;SDS011;63134;52.020;4.714;2024-03-29T06:21:39;3.22;;;1.85;;
22786;SDS011;63134;52.020;4.714;2024-03-29T06:24:24;1.63;;;1.20;;
22786;SDS011;63134;52.020;4.714;2024-03-29T06:27:08;3.42;;;1.00;;
22786;SDS011;63134;52.020;4.714;2024-03-29T06:29:53;4.22;;;1.35;;
22786;SDS011;63134;52.020;4.714;2024-03-29T06:32:38;3.25;;;1.20;;
22786;SDS011;63134;52.020;4.714;2024-03-29T06:35:23;2.20;;;1.08;;
22786;SDS011;63134;52.020;4.714;2024-03-29T06:38:07;2.50;;;1.17;;
22786;SDS011;63134;52.020;4.714;2024-03-29T06:40:52;1.65;;;1.38;;
22786;SDS011;63134;52.020;4.714;2024-03-29T06:43:36;1.58;;;0.98;;
22786;SDS011;63134;52.020;4.714;2024-03-29T06:46:21;2.60;;;1.17;;
22786;SDS011;63134;52.020;4.714;2024-03-29T06:49:06;1.67;;;1.00;;
22786;SDS011;63134;52.020;4.714;2024-03-29T06:51:50;1.83;;;1.25;;
22786;SDS011;63134;52.020;4.714;2024-03-29T06:54:35;2.90;;;1.13;;
22786;SDS011;63134;52.020;4.714;2024-03-29T06:57:20;2.05;;;1.27;;
22786;SDS011;63134;52.020;4.714;2024-03-29T07:00:09;5.00;;;1.35;;
22786;SDS011;63134;52.020;4.714;2024-03-29T07:02:54;2.55;;;1.08;;
22786;SDS011;63134;52.020;4.714;2024-03-29T07:05:39;4.10;;;1.33;;
22786;SDS011;63134;52.020;4.714;2024-03-29T07:08:24;3.63;;;1.20;;
22786;SDS011;63134;52.020;4.714;2024-03-29T07:11:09;1.90;;;1.38;;
22786;SDS011;63134;52.020;4.714;2024-03-29T07:13:56;1.23;;;1.08;;
22786;SDS011;63134;52.020;4.714;2024-03-29T07:16:41;2.80;;;1.05;;
22786;SDS011;63134;52.020;4.714;2024-03-29T07:22:10;5.23;;;1.20;;
22786;SDS011;63134;52.020;4.714;2024-03-29T07:24:55;4.93;;;1.38;;
22786;SDS011;63134;52.020;4.714;2024-03-29T07:27:40;2.22;;;1.10;;
22786;SDS011;63134;52.020;4.714;2024-03-29T07:30:25;1.80;;;0.95;;
22786;SDS011;63134;52.020;4.714;2024-03-29T07:33:10;1.10;;;0.95;;
22786;SDS011;63134;52.020;4.714;2024-03-29T07:35:55;2.60;;;1.23;;
22786;SDS011;63134;52.020;4.714;2024-03-29T07:38:40;2.20;;;1.10;;
22786;SDS011;63134;52.020;4.714;2024-03-29T07:41:25;2.15;;;1.50;;
22786;SDS011;63134;52.020;4.714;2024-03-29T07:44:09;0.90;;;0.90;;
22786;SDS011;63134;52.020;4.714;2024-03-29T07:46:54;2.25;;;1.20;;
22786;SDS011;63134;52.020;4.714;2024-03-29T07:49:38;1.45;;;1.30;;
22786;SDS011;63134;52.020;4.714;2024-03-29T07:52:23;1.50;;;1.20;;
22786;SDS011;63134;52.020;4.714;2024-03-29T07:55:09;1.60;;;1.13;;
22786;SDS011;63134;52.020;4.714;2024-03-29T07:57:54;3.05;;;1.25;;
22786;SDS011;63134;52.020;4.714;2024-03-29T08:00:39;2.58;;;1.50;;
22786;SDS011;63134;52.020;4.714;2024-03-29T08:03:25;4.35;;;1.40;;
22786;SDS011;63134;52.020;4.714;2024-03-29T08:06:10;2.30;;;1.25;;
22786;SDS011;63134;52.020;4.714;2024-03-29T08:08:54;3.20;;;1.40;;
22786;SDS011;63134;52.020;4.714;2024-03-29T08:11:39;1.80;;;1.20;;
22786;SDS011;63134;52.020;4.714;2024-03-29T08:14:25;5.30;;;1.52;;
22786;SDS011;63134;52.020;4.714;2024-03-29T08:17:11;2.38;;;1.33;;
22786;SDS011;63134;52.020;4.714;2024-03-29T08:19:56;1.85;;;1.25;;
22786;SDS011;63134;52.020;4.714;2024-03-29T08:22:41;1.33;;;1.20;;
22786;SDS011;63134;52.020;4.714;2024-03-29T08:25:26;1.58;;;1.20;;
22786;SDS011;63134;52.020;4.714;2024-03-29T08:28:11;1.23;;;1.10;;
22786;SDS011;63134;52.020;4.714;2024-03-29T08:31:00;0.90;;;0.90;;
22786;SDS011;63134;52.020;4.714;2024-03-29T08:33:51;2.50;;;1.40;;
22786;SDS011;63134;52.020;4.714;2024-03-29T08:36:36;2.42;;;1.20;;
22786;SDS011;63134;52.020;4.714;2024-03-29T08:39:21;2.88;;;1.55;;
22786;SDS011;63134;52.020;4.714;2024-03-29T08:42:06;1.48;;;1.08;;
22786;SDS011;63134;52.020;4.714;2024-03-29T08:44:51;2.13;;;1.10;;
22786;SDS011;63134;52.020;4.714;2024-03-29T08:47:36;1.65;;;1.23;;
22786;SDS011;63134;52.020;4.714;2024-03-29T08:50:21;2.35;;;1.20;;
22786;SDS011;63134;52.020;4.714;2024-03-29T08:53:06;1.70;;;1.10;;
22786;SDS011;63134;52.020;4.714;2024-03-29T08:55:51;2.83;;;1.27;;
22786;SDS011;63134;52.020;4.714;2024-03-29T08:58:35;2.45;;;1.25;;
22786;SDS011;63134;52.020;4.714;2024-03-29T09:01:20;1.80;;;1.30;;
22786;SDS011;63134;52.020;4.714;2024-03-29T09:04:05;3.53;;;1.33;;
22786;SDS011;63134;52.020;4.714;2024-03-29T09:06:52;1.83;;;1.20;;
22786;SDS011;63134;52.020;4.714;2024-03-29T09:09:38;1.58;;;1.40;;
22786;SDS011;63134;52.020;4.714;2024-03-29T09:12:29;1.25;;;1.02;;
22786;SDS011;63134;52.020;4.714;2024-03-29T09:15:16;2.08;;;1.02;;
22786;SDS011;63134;52.020;4.714;2024-03-29T09:18:01;1.50;;;1.10;;
22786;SDS011;63134;52.020;4.714;2024-03-29T09:20:57;1.95;;;1.05;;
22786;SDS011;63134;52.020;4.714;2024-03-29T09:23:45;2.17;;;1.10;;
22786;SDS011;63134;52.020;4.714;2024-03-29T09:26:31;1.20;;;1.10;;
22786;SDS011;63134;52.020;4.714;2024-03-29T09:29:16;1.75;;;1.00;;
22786;SDS011;63134;52.020;4.714;2024-03-29T09:32:04;1.17;;;1.02;;
22786;SDS011;63134;52.020;4.714;2024-03-29T09:34:50;1.30;;;1.02;;
22786;SDS011;63134;52.020;4.714;2024-03-29T09:37:35;1.23;;;1.00;;
22786;SDS011;63134;52.020;4.714;2024-03-29T09:40:20;2.20;;;1.05;;
22786;SDS011;63134;52.020;4.714;2024-03-29T09:43:07;1.75;;;1.05;;
22786;SDS011;63134;52.020;4.714;2024-03-29T09:45:54;2.28;;;1.35;;
22786;SDS011;63134;52.020;4.714;2024-03-29T09:48:40;2.75;;;2.20;;
22786;SDS011;63134;52.020;4.714;2024-03-29T09:51:25;2.70;;;2.28;;
22786;SDS011;63134;52.020;4.714;2024-03-29T09:54:11;4.65;;;2.05;;
22786;SDS011;63134;52.020;4.714;2024-03-29T09:56:57;2.50;;;2.30;;
22786;SDS011;63134;52.020;4.714;2024-03-29T09:59:42;3.28;;;2.13;;
22786;SDS011;63134;52.020;4.714;2024-03-29T10:02:30;1.95;;;1.67;;
22786;SDS011;63134;52.020;4.714;2024-03-29T10:05:16;2.33;;;1.50;;
22786;SDS011;63134;52.020;4.714;2024-03-29T10:08:04;2.25;;;1.83;;
22786;SDS011;63134;52.020;4.714;2024-03-29T10:10:51;5.13;;;1.90;;
22786;SDS011;63134;52.020;4.714;2024-03-29T10:13:37;3.35;;;1.83;;
22786;SDS011;63134;52.020;4.714;2024-03-29T10:16:22;1.88;;;1.50;;
22786;SDS011;63134;52.020;4.714;2024-03-29T10:19:09;3.85;;;1.77;;
22786;SDS011;63134;52.020;4.714;2024-03-29T10:22:04;2.92;;;2.08;;
22786;SDS011;63134;52.020;4.714;2024-03-29T10:24:50;4.10;;;2.40;;
22786;SDS011;63134;52.020;4.714;2024-03-29T10:27:34;2.85;;;2.10;;
22786;SDS011;63134;52.020;4.714;2024-03-29T10:30:19;3.67;;;2.10;;
22786;SDS011;63134;52.020;4.714;2024-03-29T10:33:05;2.58;;;1.85;;
22786;SDS011;63134;52.020;4.714;2024-03-29T10:35:49;4.07;;;2.17;;
22786;SDS011;63134;52.020;4.714;2024-03-29T10:38:34;5.13;;;2.20;;
22786;SDS011;63134;52.020;4.714;2024-03-29T10:41:20;2.90;;;2.25;;
22786;SDS011;63134;52.020;4.714;2024-03-29T10:44:08;3.55;;;2.25;;
22786;SDS011;63134;52.020;4.714;2024-03-29T10:46:58;3.22;;;1.90;;
22786;SDS011;63134;52.020;4.714;2024-03-29T10:49:46;4.28;;;2.08;;
22786;SDS011;63134;52.020;4.714;2024-03-29T10:52:33;3.90;;;1.77;;
22786;SDS011;63134;52.020;4.714;2024-03-29T10:55:20;2.30;;;1.60;;
22786;SDS011;63134;52.020;4.714;2024-03-29T10:58:05;3.53;;;2.10;;
22786;SDS011;63134;52.020;4.714;2024-03-29T11:00:52;3.75;;;1.95;;
22786;SDS011;63134;52.020;4.714;2024-03-29T11:03:42;2.50;;;1.90;;
22786;SDS011;63134;52.020;4.714;2024-03-29T11:06:29;4.45;;;1.95;;
22786;SDS011;63134;52.020;4.714;2024-03-29T11:09:16;2.63;;;1.85;;
22786;SDS011;63134;52.020;4.714;2024-03-29T11:12:03;3.15;;;2.00;;
22786;SDS011;63134;52.020;4.714;2024-03-29T11:14:52;4.15;;;2.20;;
22786;SDS011;63134;52.020;4.714;2024-03-29T11:17:43;4.00;;;1.90;;
22786;SDS011;63134;52.020;4.714;2024-03-29T11:20:28;2.90;;;1.77;;
22786;SDS011;63134;52.020;4.714;2024-03-29T11:23:21;3.42;;;1.90;;
22786;SDS011;63134;52.020;4.714;2024-03-29T11:26:07;3.15;;;1.88;;
22786;SDS011;63134;52.020;4.714;2024-03-29T11:28:52;3.55;;;1.45;;
22786;SDS011;63134;52.020;4.714;2024-03-29T11:31:37;1.95;;;1.13;;
22786;SDS011;63134;52.020;4.714;2024-03-29T11:34:22;4.43;;;1.40;;
22786;SDS011;63134;52.020;4.714;2024-03-29T11:37:10;1.42;;;1.25;;
22786;SDS011;63134;52.020;4.714;2024-03-29T11:39:55;2.45;;;1.17;;
22786;SDS011;63134;52.020;4.714;2024-03-29T11:42:43;2.17;;;1.50;;
22786;SDS011;63134;52.020;4.714;2024-03-29T11:45:29;2.33;;;1.42;;
22786;SDS011;63134;52.020;4.714;2024-03-29T11:48:16;1.30;;;1.20;;
22786;SDS011;63134;52.020;4.714;2024-03-29T11:51:11;4.72;;;1.88;;
22786;SDS011;63134;52.020;4.714;2024-03-29T11:53:59;2.38;;;1.30;;
22786;SDS011;63134;52.020;4.714;2024-03-29T11:56:44;2.25;;;1.42;;
22786;SDS011;63134;52.020;4.714;2024-03-29T12:02:14;3.20;;;1.42;;
22786;SDS011;63134;52.020;4.714;2024-03-29T12:04:58;4.13;;;1.23;;
22786;SDS011;63134;52.020;4.714;2024-03-29T12:10:32;4.07;;;1.20;;
22786;SDS011;63134;52.020;4.714;2024-03-29T12:13:20;1.48;;;1.23;;
22786;SDS011;63134;52.020;4.714;2024-03-29T12:16:05;1.52;;;1.40;;
22786;SDS011;63134;52.020;4.714;2024-03-29T12:18:51;1.90;;;1.10;;
22786;SDS011;63134;52.020;4.714;2024-03-29T12:21:36;2.10;;;1.20;;
22786;SDS011;63134;52.020;4.714;2024-03-29T12:24:21;1.75;;;1.25;;
22786;SDS011;63134;52.020;4.714;2024-03-29T12:29:52;2.60;;;1.40;;
22786;SDS011;63134;52.020;4.714;2024-03-29T12:32:37;3.20;;;1.30;;
22786;SDS011;63134;52.020;4.714;2024-03-29T12:35:23;2.83;;;1.58;;
22786;SDS011;63134;52.020;4.714;2024-03-29T12:38:07;2.53;;;1.38;;
22786;SDS011;63134;52.020;4.714;2024-03-29T12:40:52;2.83;;;1.30;;
22786;SDS011;63134;52.020;4.714;2024-03-29T12:43:37;1.63;;;1.30;;
22786;SDS011;63134;52.020;4.714;2024-03-29T12:46:21;2.88;;;1.33;;
22786;SDS011;63134;52.020;4.714;2024-03-29T12:49:06;1.63;;;1.25;;
22786;SDS011;63134;52.020;4.714;2024-03-29T12:51:51;3.60;;;1.38;;
22786;SDS011;63134;52.020;4.714;2024-03-29T12:54:35;1.95;;;1.40;;
22786;SDS011;63134;52.020;4.714;2024-03-29T12:57:20;2.08;;;1.27;;
22786;SDS011;63134;52.020;4.714;2024-03-29T13:00:05;1.25;;;1.10;;
22786;SDS011;63134;52.020;4.714;2024-03-29T13:02:53;2.42;;;1.13;;
22786;SDS011;63134;52.020;4.714;2024-03-29T13:08:26;1.85;;;1.00;;
22786;SDS011;63134;52.020;4.714;2024-03-29T13:11:11;2.60;;;1.58;;
22786;SDS011;63134;52.020;4.714;2024-03-29T13:13:55;2.85;;;1.10;;
22786;SDS011;63134;52.020;4.714;2024-03-29T13:16:41;2.10;;;1.10;;
22786;SDS011;63134;52.020;4.714;2024-03-29T13:22:10;4.07;;;1.30;;
22786;SDS011;63134;52.020;4.714;2024-03-29T13:24:55;2.25;;;1.27;;
22786;SDS011;63134;52.020;4.714;2024-03-29T13:27:40;4.30;;;1.52;;
22786;SDS011;63134;52.020;4.714;2024-03-29T13:30:25;2.35;;;1.50;;
22786;SDS011;63134;52.020;4.714;2024-03-29T13:33:11;3.60;;;1.02;;
22786;SDS011;63134;52.020;4.714;2024-03-29T13:35:57;3.40;;;1.30;;
22786;SDS011;63134;52.020;4.714;2024-03-29T13:38:42;4.35;;;1.20;;
22786;SDS011;63134;52.020;4.714;2024-03-29T13:41:26;4.20;;;0.98;;
22786;SDS011;63134;52.020;4.714;2024-03-29T13:44:11;1.48;;;1.02;;
22786;SDS011;63134;52.020;4.714;2024-03-29T13:46:57;3.35;;;1.30;;
22786;SDS011;63134;52.020;4.714;2024-03-29T13:49:42;2.10;;;1.00;;
22786;SDS011;63134;52.020;4.714;2024-03-29T13:52:26;3.78;;;1.20;;
22786;SDS011;63134;52.020;4.714;2024-03-29T13:55:11;2.05;;;1.10;;
22786;SDS011;63134;52.020;4.714;2024-03-29T13:57:56;1.60;;;1.05;;
22786;SDS011;63134;52.020;4.714;2024-03-29T14:03:25;1.40;;;1.00;;
22786;SDS011;63134;52.020;4.714;2024-03-29T14:06:10;2.25;;;1.20;;
22786;SDS011;63134;52.020;4.714;2024-03-29T14:08:55;5.68;;;1.42;;
22786;SDS011;63134;52.020;4.714;2024-03-29T14:11:43;2.08;;;1.30;;
22786;SDS011;63134;52.020;4.714;2024-03-29T14:14:28;1.67;;;1.00;;
22786;SDS011;63134;52.020;4.714;2024-03-29T14:17:13;2.22;;;1.27;;
22786;SDS011;63134;52.020;4.714;2024-03-29T14:22:43;1.73;;;1.07;;
22786;SDS011;63134;52.020;4.714;2024-03-29T14:25:28;7.35;;;1.58;;
22786;SDS011;63134;52.020;4.714;2024-03-29T14:28:13;1.30;;;1.00;;
22786;SDS011;63134;52.020;4.714;2024-03-29T14:30:58;2.67;;;1.40;;
22786;SDS011;63134;52.020;4.714;2024-03-29T14:33:42;2.63;;;0.93;;
22786;SDS011;63134;52.020;4.714;2024-03-29T14:36:28;3.13;;;1.17;;
22786;SDS011;63134;52.020;4.714;2024-03-29T14:39:16;3.97;;;1.20;;
22786;SDS011;63134;52.020;4.714;2024-03-29T14:42:03;3.38;;;1.30;;
22786;SDS011;63134;52.020;4.714;2024-03-29T14:44:49;4.18;;;1.20;;
22786;SDS011;63134;52.020;4.714;2024-03-29T14:47:34;2.33;;;1.17;;
22786;SDS011;63134;52.020;4.714;2024-03-29T14:50:19;3.03;;;1.30;;
22786;SDS011;63134;52.020;4.714;2024-03-29T14:53:04;4.90;;;1.65;;
22786;SDS011;63134;52.020;4.714;2024-03-29T14:55:49;4.10;;;1.30;;
22786;SDS011;63134;52.020;4.714;2024-03-29T14:58:33;3.60;;;1.80;;
22786;SDS011;63134;52.020;4.714;2024-03-29T15:01:21;3.83;;;1.60;;
22786;SDS011;63134;52.020;4.714;2024-03-29T15:04:06;2.17;;;1.30;;
22786;SDS011;63134;52.020;4.714;2024-03-29T15:06:50;1.15;;;1.00;;
22786;SDS011;63134;52.020;4.714;2024-03-29T15:09:35;2.15;;;1.10;;
22786;SDS011;63134;52.020;4.714;2024-03-29T15:12:20;1.20;;;0.98;;
22786;SDS011;63134;52.020;4.714;2024-03-29T15:15:05;1.13;;;0.90;;
22786;SDS011;63134;52.020;4.714;2024-03-29T15:17:50;2.65;;;1.00;;
22786;SDS011;63134;52.020;4.714;2024-03-29T15:20:36;0.82;;;0.70;;
22786;SDS011;63134;52.020;4.714;2024-03-29T15:26:08;1.77;;;1.30;;
22786;SDS011;63134;52.020;4.714;2024-03-29T15:28:52;1.88;;;1.15;;
22786;SDS011;63134;52.020;4.714;2024-03-29T15:31:52;2.42;;;1.00;;
22786;SDS011;63134;52.020;4.714;2024-03-29T15:34:38;2.55;;;1.20;;
22786;SDS011;63134;52.020;4.714;2024-03-29T15:37:23;1.33;;;0.80;;
22786;SDS011;63134;52.020;4.714;2024-03-29T15:40:09;1.30;;;0.95;;
22786;SDS011;63134;52.020;4.714;2024-03-29T15:42:54;1.60;;;0.88;;
22786;SDS011;63134;52.020;4.714;2024-03-29T15:45:39;3.35;;;0.90;;
22786;SDS011;63134;52.020;4.714;2024-03-29T15:48:24;7.05;;;1.10;;
22786;SDS011;63134;52.020;4.714;2024-03-29T15:51:09;4.00;;;0.88;;
22786;SDS011;63134;52.020;4.714;2024-03-29T15:53:57;3.58;;;1.13;;
22786;SDS011;63134;52.020;4.714;2024-03-29T15:56:44;2.80;;;1.00;;
22786;SDS011;63134;52.020;4.714;2024-03-29T15:59:29;2.10;;;0.88;;
22786;SDS011;63134;52.020;4.714;2024-03-29T16:02:14;3.15;;;1.10;;
22786;SDS011;63134;52.020;4.714;2024-03-29T16:04:59;1.83;;;0.80;;
22786;SDS011;63134;52.020;4.714;2024-03-29T16:07:45;1.90;;;0.93;;
22786;SDS011;63134;52.020;4.714;2024-03-29T16:10:29;1.92;;;1.42;;
22786;SDS011;63134;52.020;4.714;2024-03-29T16:13:14;2.10;;;1.42;;
22786;SDS011;63134;52.020;4.714;2024-03-29T16:16:01;3.75;;;1.70;;
22786;SDS011;63134;52.020;4.714;2024-03-29T16:18:47;2.92;;;1.30;;
22786;SDS011;63134;52.020;4.714;2024-03-29T16:21:32;1.23;;;0.95;;
22786;SDS011;63134;52.020;4.714;2024-03-29T16:24:17;2.45;;;1.58;;
22786;SDS011;63134;52.020;4.714;2024-03-29T16:27:02;2.13;;;1.20;;
22786;SDS011;63134;52.020;4.714;2024-03-29T16:29:47;1.77;;;1.10;;
22786;SDS011;63134;52.020;4.714;2024-03-29T16:32:32;2.55;;;1.45;;
22786;SDS011;63134;52.020;4.714;2024-03-29T16:35:19;1.70;;;1.20;;
22786;SDS011;63134;52.020;4.714;2024-03-29T16:40:48;1.87;;;1.30;;
22786;SDS011;63134;52.020;4.714;2024-03-29T16:43:33;2.08;;;0.80;;
22786;SDS011;63134;52.020;4.714;2024-03-29T16:46:18;2.90;;;1.20;;
22786;SDS011;63134;52.020;4.714;2024-03-29T16:49:02;2.55;;;1.20;;
22786;SDS011;63134;52.020;4.714;2024-03-29T16:51:48;2.95;;;1.25;;
22786;SDS011;63134;52.020;4.714;2024-03-29T16:54:32;2.17;;;1.10;;
22786;SDS011;63134;52.020;4.714;2024-03-29T16:57:17;1.40;;;0.98;;
22786;SDS011;63134;52.020;4.714;2024-03-29T17:00:05;1.42;;;1.10;;
22786;SDS011;63134;52.020;4.714;2024-03-29T17:02:58;2.75;;;1.20;;
22786;SDS011;63134;52.020;4.714;2024-03-29T17:05:44;1.50;;;1.00;;
22786;SDS011;63134;52.020;4.714;2024-03-29T17:08:29;3.10;;;1.40;;
22786;SDS011;63134;52.020;4.714;2024-03-29T17:11:13;2.65;;;1.25;;